sensor_id;sensor_type;location;lat;lon;timestamp;temperature;humidity
7792;DHT22;3940;49.892;10.886;2022-10-03T00:04:30;9.20;99.90
7792;DHT22;3940;49.892;10.886;2022-10-03T00:07:45;9.10;99.90
7792;DHT22;3940;49.892;10.886;2022-10-03T00:10:55;9.10;99.90
7792;DHT22;3940;49.892;10.886;2022-10-03T00:17:26;9.20;99.90
7792;DHT22;3940;49.892;10.886;2022-10-03T00:20:37;9.20;99.90
7792;DHT22;3940;49.892;10.886;2022-10-03T00:26:35;9.20;99.90
7792;DHT22;3940;49.892;10.886;2022-10-03T00:29:35;9.20;99.90
7792;DHT22;3940;49.892;10.886;2022-10-03T00:32:34;9.30;99.90
7792;DHT22;3940;49.892;10.886;2022-10-03T00:35:43;9.40;99.90
7792;DHT22;3940;49.892;10.886;2022-10-03T00:42:20;9.50;99.90
7792;DHT22;3940;49.892;10.886;2022-10-03T00:52:01;9.20;99.90
7792;DHT22;3940;49.892;10.886;2022-10-03T00:58:15;9.20;99.90
7792;DHT22;3940;49.892;10.886;2022-10-03T01:04:37;9.00;99.90
7792;DHT22;3940;49.892;10.886;2022-10-03T01:07:53;9.00;99.90
7792;DHT22;3940;49.892;10.886;2022-10-03T01:14:20;8.90;99.90
7792;DHT22;3940;49.892;10.886;2022-10-03T01:17:35;8.90;99.90
7792;DHT22;3940;49.892;10.886;2022-10-03T01:23:52;8.60;99.90
7792;DHT22;3940;49.892;10.886;2022-10-03T01:26:57;8.50;99.90
7792;DHT22;3940;49.892;10.886;2022-10-03T01:29:54;8.40;99.90
7792;DHT22;3940;49.892;10.886;2022-10-03T01:36:24;8.40;99.90
7792;DHT22;3940;49.892;10.886;2022-10-03T01:39:19;8.30;99.90
7792;DHT22;3940;49.892;10.886;2022-10-03T01:42:11;8.30;99.90
7792;DHT22;3940;49.892;10.886;2022-10-03T01:45:14;8.30;99.90
7792;DHT22;3940;49.892;10.886;2022-10-03T01:48:11;8.30;99.90
7792;DHT22;3940;49.892;10.886;2022-10-03T01:51:08;8.40;99.90
7792;DHT22;3940;49.892;10.886;2022-10-03T01:54:14;8.40;99.90
7792;DHT22;3940;49.892;10.886;2022-10-03T01:57:10;8.30;99.90
7792;DHT22;3940;49.892;10.886;2022-10-03T02:03:19;8.50;99.90
7792;DHT22;3940;49.892;10.886;2022-10-03T02:06:24;8.40;99.90
7792;DHT22;3940;49.892;10.886;2022-10-03T02:12:31;8.60;99.90
7792;DHT22;3940;49.892;10.886;2022-10-03T02:15:32;8.60;99.90
7792;DHT22;3940;49.892;10.886;2022-10-03T02:18:33;8.60;99.90
7792;DHT22;3940;49.892;10.886;2022-10-03T02:21:25;8.60;99.90
7792;DHT22;3940;49.892;10.886;2022-10-03T02:24:25;8.60;99.90
7792;DHT22;3940;49.892;10.886;2022-10-03T02:34:16;8.60;99.90
7792;DHT22;3940;49.892;10.886;2022-10-03T02:37:33;8.50;99.90
7792;DHT22;3940;49.892;10.886;2022-10-03T02:40:55;8.40;99.90
7792;DHT22;3940;49.892;10.886;2022-10-03T02:44:07;8.40;99.90
7792;DHT22;3940;49.892;10.886;2022-10-03T02:50:43;8.30;99.90
7792;DHT22;3940;49.892;10.886;2022-10-03T03:00:09;8.40;99.90
7792;DHT22;3940;49.892;10.886;2022-10-03T03:09:52;8.60;99.90
7792;DHT22;3940;49.892;10.886;2022-10-03T03:16:24;8.80;99.90
7792;DHT22;3940;49.892;10.886;2022-10-03T03:19:41;8.80;99.90
7792;DHT22;3940;49.892;10.886;2022-10-03T03:28:57;8.90;99.90
7792;DHT22;3940;49.892;10.886;2022-10-03T03:32:01;8.90;99.90
7792;DHT22;3940;49.892;10.886;2022-10-03T03:35:09;8.80;99.90
7792;DHT22;3940;49.892;10.886;2022-10-03T03:38:16;8.80;99.90
7792;DHT22;3940;49.892;10.886;2022-10-03T03:44:31;8.70;99.90
7792;DHT22;3940;49.892;10.886;2022-10-03T03:47:46;8.60;99.90
7792;DHT22;3940;49.892;10.886;2022-10-03T03:51:09;8.70;99.90
7792;DHT22;3940;49.892;10.886;2022-10-03T03:54:24;8.60;99.90
7792;DHT22;3940;49.892;10.886;2022-10-03T03:57:26;8.60;99.90
7792;DHT22;3940;49.892;10.886;2022-10-03T04:00:29;8.70;99.90
7792;DHT22;3940;49.892;10.886;2022-10-03T04:06:49;8.80;99.90
7792;DHT22;3940;49.892;10.886;2022-10-03T04:16:30;8.40;99.90
7792;DHT22;3940;49.892;10.886;2022-10-03T04:26:07;8.10;99.90
7792;DHT22;3940;49.892;10.886;2022-10-03T04:32:40;8.00;99.90
7792;DHT22;3940;49.892;10.886;2022-10-03T04:35:40;8.10;99.90
7792;DHT22;3940;49.892;10.886;2022-10-03T04:38:53;8.10;99.90
7792;DHT22;3940;49.892;10.886;2022-10-03T04:41:49;8.20;99.90
7792;DHT22;3940;49.892;10.886;2022-10-03T04:44:59;8.30;99.90
7792;DHT22;3940;49.892;10.886;2022-10-03T04:47:51;8.40;99.90
7792;DHT22;3940;49.892;10.886;2022-10-03T04:51:00;8.50;99.90
7792;DHT22;3940;49.892;10.886;2022-10-03T04:53:58;8.50;99.90
7792;DHT22;3940;49.892;10.886;2022-10-03T05:00:33;8.60;99.90
7792;DHT22;3940;49.892;10.886;2022-10-03T05:06:47;8.70;99.90
7792;DHT22;3940;49.892;10.886;2022-10-03T05:09:48;8.60;99.90
7792;DHT22;3940;49.892;10.886;2022-10-03T05:12:42;8.70;99.90
7792;DHT22;3940;49.892;10.886;2022-10-03T05:15:46;8.60;99.90
7792;DHT22;3940;49.892;10.886;2022-10-03T05:18:44;8.60;99.90
7792;DHT22;3940;49.892;10.886;2022-10-03T05:21:54;8.40;99.90
7792;DHT22;3940;49.892;10.886;2022-10-03T05:24:54;8.50;99.90
7792;DHT22;3940;49.892;10.886;2022-10-03T05:27:47;8.50;99.90
7792;DHT22;3940;49.892;10.886;2022-10-03T05:30:42;8.70;99.90
7792;DHT22;3940;49.892;10.886;2022-10-03T05:33:44;8.70;99.90
7792;DHT22;3940;49.892;10.886;2022-10-03T05:36:44;8.80;99.90
7792;DHT22;3940;49.892;10.886;2022-10-03T05:39:44;8.90;99.90
7792;DHT22;3940;49.892;10.886;2022-10-03T05:42:59;8.70;99.90
7792;DHT22;3940;49.892;10.886;2022-10-03T05:45:53;8.70;99.90
7792;DHT22;3940;49.892;10.886;2022-10-03T05:49:06;8.60;99.90
7792;DHT22;3940;49.892;10.886;2022-10-03T05:52:24;8.70;99.90
7792;DHT22;3940;49.892;10.886;2022-10-03T05:55:28;8.80;99.90
7792;DHT22;3940;49.892;10.886;2022-10-03T06:01:44;8.90;99.90
7792;DHT22;3940;49.892;10.886;2022-10-03T06:14:32;9.40;99.90
7792;DHT22;3940;49.892;10.886;2022-10-03T06:21:01;9.60;99.90
7792;DHT22;3940;49.892;10.886;2022-10-03T06:27:40;10.00;99.90
7792;DHT22;3940;49.892;10.886;2022-10-03T06:30:51;9.90;99.90
7792;DHT22;3940;49.892;10.886;2022-10-03T06:33:58;9.80;99.90
7792;DHT22;3940;49.892;10.886;2022-10-03T06:37:07;9.40;99.90
7792;DHT22;3940;49.892;10.886;2022-10-03T06:43:38;9.20;99.90
7792;DHT22;3940;49.892;10.886;2022-10-03T06:46:45;9.20;99.90
7792;DHT22;3940;49.892;10.886;2022-10-03T06:49:49;9.30;99.90
7792;DHT22;3940;49.892;10.886;2022-10-03T06:59:40;9.60;99.90
7792;DHT22;3940;49.892;10.886;2022-10-03T07:02:47;9.50;99.90
7792;DHT22;3940;49.892;10.886;2022-10-03T07:09:10;9.40;99.90
7792;DHT22;3940;49.892;10.886;2022-10-03T07:18:58;9.30;99.90
7792;DHT22;3940;49.892;10.886;2022-10-03T07:22:14;9.40;99.90
7792;DHT22;3940;49.892;10.886;2022-10-03T07:25:30;9.60;99.90
7792;DHT22;3940;49.892;10.886;2022-10-03T07:31:52;10.10;99.90
7792;DHT22;3940;49.892;10.886;2022-10-03T07:34:52;10.40;99.90
7792;DHT22;3940;49.892;10.886;2022-10-03T07:48:34;11.30;99.90
7792;DHT22;3940;49.892;10.886;2022-10-03T07:51:30;11.60;99.90
7792;DHT22;3940;49.892;10.886;2022-10-03T07:54:47;11.90;99.90
7792;DHT22;3940;49.892;10.886;2022-10-03T08:04:44;12.60;99.90
7792;DHT22;3940;49.892;10.886;2022-10-03T08:07:43;12.80;99.90
7792;DHT22;3940;49.892;10.886;2022-10-03T08:10:56;13.00;99.90
7792;DHT22;3940;49.892;10.886;2022-10-03T08:20:47;13.20;99.90
7792;DHT22;3940;49.892;10.886;2022-10-03T08:24:04;13.30;99.90
7792;DHT22;3940;49.892;10.886;2022-10-03T08:27:12;13.20;99.90
7792;DHT22;3940;49.892;10.886;2022-10-03T08:36:42;13.30;99.90
7792;DHT22;3940;49.892;10.886;2022-10-03T08:43:21;13.30;99.90
7792;DHT22;3940;49.892;10.886;2022-10-03T08:46:36;13.30;99.90
7792;DHT22;3940;49.892;10.886;2022-10-03T08:53:05;13.40;99.90
7792;DHT22;3940;49.892;10.886;2022-10-03T08:56:02;13.40;99.90
7792;DHT22;3940;49.892;10.886;2022-10-03T08:59:16;13.40;99.90
7792;DHT22;3940;49.892;10.886;2022-10-03T09:02:43;13.50;99.90
7792;DHT22;3940;49.892;10.886;2022-10-03T09:09:01;13.70;99.90
7792;DHT22;3940;49.892;10.886;2022-10-03T09:18:38;13.90;99.90
7792;DHT22;3940;49.892;10.886;2022-10-03T09:31:31;14.40;99.90
7792;DHT22;3940;49.892;10.886;2022-10-03T09:34:47;14.50;99.90
7792;DHT22;3940;49.892;10.886;2022-10-03T09:41:16;14.70;99.90
7792;DHT22;3940;49.892;10.886;2022-10-03T09:50:57;15.40;99.90
7792;DHT22;3940;49.892;10.886;2022-10-03T09:54:14;15.30;99.90
7792;DHT22;3940;49.892;10.886;2022-10-03T10:00:20;14.90;99.90
7792;DHT22;3940;49.892;10.886;2022-10-03T10:06:26;14.60;99.90
7792;DHT22;3940;49.892;10.886;2022-10-03T10:09:37;14.90;99.90
7792;DHT22;3940;49.892;10.886;2022-10-03T10:12:38;16.20;99.90
7792;DHT22;3940;49.892;10.886;2022-10-03T10:19:24;18.00;99.90
7792;DHT22;3940;49.892;10.886;2022-10-03T10:22:22;17.70;99.90
7792;DHT22;3940;49.892;10.886;2022-10-03T10:25:29;17.50;99.90
7792;DHT22;3940;49.892;10.886;2022-10-03T10:31:59;17.40;99.90
7792;DHT22;3940;49.892;10.886;2022-10-03T10:41:36;16.60;99.90
7792;DHT22;3940;49.892;10.886;2022-10-03T10:44:52;16.30;99.90
7792;DHT22;3940;49.892;10.886;2022-10-03T10:51:34;15.90;99.90
7792;DHT22;3940;49.892;10.886;2022-10-03T10:54:56;15.80;99.90
7792;DHT22;3940;49.892;10.886;2022-10-03T11:14:32;16.00;99.90
7792;DHT22;3940;49.892;10.886;2022-10-03T11:24:30;16.70;99.90
7792;DHT22;3940;49.892;10.886;2022-10-03T11:37:43;15.90;99.90
7792;DHT22;3940;49.892;10.886;2022-10-03T11:40:45;15.80;99.90
7792;DHT22;3940;49.892;10.886;2022-10-03T11:43:52;15.70;99.90
7792;DHT22;3940;49.892;10.886;2022-10-03T11:47:01;15.60;99.90
7792;DHT22;3940;49.892;10.886;2022-10-03T11:56:35;16.40;99.90
7792;DHT22;3940;49.892;10.886;2022-10-03T11:59:35;16.90;99.90
7792;DHT22;3940;49.892;10.886;2022-10-03T12:02:41;17.20;99.90
7792;DHT22;3940;49.892;10.886;2022-10-03T12:05:48;17.30;99.90
7792;DHT22;3940;49.892;10.886;2022-10-03T12:08:38;18.10;99.90
7792;DHT22;3940;49.892;10.886;2022-10-03T12:11:47;19.40;99.90
7792;DHT22;3940;49.892;10.886;2022-10-03T12:14:42;19.60;99.90
7792;DHT22;3940;49.892;10.886;2022-10-03T12:17:34;19.70;99.90
7792;DHT22;3940;49.892;10.886;2022-10-03T12:20:31;19.50;99.90
7792;DHT22;3940;49.892;10.886;2022-10-03T12:26:42;18.90;99.90
7792;DHT22;3940;49.892;10.886;2022-10-03T12:29:33;18.30;99.90
7792;DHT22;3940;49.892;10.886;2022-10-03T12:32:27;17.90;99.90
7792;DHT22;3940;49.892;10.886;2022-10-03T12:35:35;17.60;99.90
7792;DHT22;3940;49.892;10.886;2022-10-03T12:38:34;17.20;99.90
7792;DHT22;3940;49.892;10.886;2022-10-03T12:44:54;16.70;99.90
7792;DHT22;3940;49.892;10.886;2022-10-03T12:47:59;16.90;99.90
7792;DHT22;3940;49.892;10.886;2022-10-03T12:54:27;19.20;99.90
7792;DHT22;3940;49.892;10.886;2022-10-03T13:00:39;21.10;99.90
7792;DHT22;3940;49.892;10.886;2022-10-03T13:03:54;22.80;99.90
7792;DHT22;3940;49.892;10.886;2022-10-03T13:06:52;23.10;96.90
7792;DHT22;3940;49.892;10.886;2022-10-03T13:09:59;22.90;95.70
7792;DHT22;3940;49.892;10.886;2022-10-03T13:12:52;22.90;94.80
7792;DHT22;3940;49.892;10.886;2022-10-03T13:16:05;22.30;95.00
7792;DHT22;3940;49.892;10.886;2022-10-03T13:19:02;21.20;96.60
7792;DHT22;3940;49.892;10.886;2022-10-03T13:22:33;20.30;99.30
7792;DHT22;3940;49.892;10.886;2022-10-03T13:25:17;19.80;99.90
7792;DHT22;3940;49.892;10.886;2022-10-03T13:28:29;19.00;99.90
7792;DHT22;3940;49.892;10.886;2022-10-03T13:31:22;18.50;99.90
7792;DHT22;3940;49.892;10.886;2022-10-03T13:34:16;18.00;99.90
7792;DHT22;3940;49.892;10.886;2022-10-03T13:37:11;17.80;99.90
7792;DHT22;3940;49.892;10.886;2022-10-03T13:40:06;17.50;99.90
7792;DHT22;3940;49.892;10.886;2022-10-03T13:42:56;17.40;99.90
7792;DHT22;3940;49.892;10.886;2022-10-03T13:45:43;17.20;99.90
7792;DHT22;3940;49.892;10.886;2022-10-03T13:48:32;17.10;99.90
7792;DHT22;3940;49.892;10.886;2022-10-03T13:51:30;17.00;99.90
7792;DHT22;3940;49.892;10.886;2022-10-03T13:54:21;17.10;99.90
7792;DHT22;3940;49.892;10.886;2022-10-03T13:57:17;17.10;99.90
7792;DHT22;3940;49.892;10.886;2022-10-03T14:00:13;17.20;99.90
7792;DHT22;3940;49.892;10.886;2022-10-03T14:03:13;17.20;99.90
7792;DHT22;3940;49.892;10.886;2022-10-03T14:06:22;17.30;99.90
7792;DHT22;3940;49.892;10.886;2022-10-03T14:09:49;17.40;99.90
7792;DHT22;3940;49.892;10.886;2022-10-03T14:12:47;17.60;99.90
7792;DHT22;3940;49.892;10.886;2022-10-03T14:15:45;17.60;99.90
7792;DHT22;3940;49.892;10.886;2022-10-03T14:18:54;17.80;99.90
7792;DHT22;3940;49.892;10.886;2022-10-03T14:21:59;19.10;99.90
7792;DHT22;3940;49.892;10.886;2022-10-03T14:24:56;18.90;99.90
7792;DHT22;3940;49.892;10.886;2022-10-03T14:28:05;18.70;99.90
7792;DHT22;3940;49.892;10.886;2022-10-03T14:31:20;18.20;99.90
7792;DHT22;3940;49.892;10.886;2022-10-03T14:34:20;17.80;99.90
7792;DHT22;3940;49.892;10.886;2022-10-03T14:37:24;17.40;99.90
7792;DHT22;3940;49.892;10.886;2022-10-03T14:40:17;17.10;99.90
7792;DHT22;3940;49.892;10.886;2022-10-03T14:43:24;16.90;99.90
7792;DHT22;3940;49.892;10.886;2022-10-03T14:46:11;16.80;99.90
7792;DHT22;3940;49.892;10.886;2022-10-03T14:49:01;16.60;99.90
7792;DHT22;3940;49.892;10.886;2022-10-03T14:52:32;16.50;99.90
7792;DHT22;3940;49.892;10.886;2022-10-03T14:55:20;16.40;99.90
7792;DHT22;3940;49.892;10.886;2022-10-03T14:58:22;16.40;99.90
7792;DHT22;3940;49.892;10.886;2022-10-03T15:01:16;16.30;99.90
7792;DHT22;3940;49.892;10.886;2022-10-03T15:04:12;16.20;99.90
7792;DHT22;3940;49.892;10.886;2022-10-03T15:07:01;16.10;99.90
7792;DHT22;3940;49.892;10.886;2022-10-03T15:09:47;16.00;99.90
7792;DHT22;3940;49.892;10.886;2022-10-03T15:12:35;16.00;99.90
7792;DHT22;3940;49.892;10.886;2022-10-03T15:15:25;15.90;99.90
7792;DHT22;3940;49.892;10.886;2022-10-03T15:18:29;15.90;99.90
7792;DHT22;3940;49.892;10.886;2022-10-03T15:21:14;15.90;99.90
7792;DHT22;3940;49.892;10.886;2022-10-03T15:24:03;15.90;99.90
7792;DHT22;3940;49.892;10.886;2022-10-03T15:26:53;15.90;99.90
7792;DHT22;3940;49.892;10.886;2022-10-03T15:29:39;15.90;99.90
7792;DHT22;3940;49.892;10.886;2022-10-03T15:32:30;16.10;99.90
7792;DHT22;3940;49.892;10.886;2022-10-03T15:35:21;16.60;99.90
7792;DHT22;3940;49.892;10.886;2022-10-03T15:38:13;17.00;99.90
7792;DHT22;3940;49.892;10.886;2022-10-03T15:41:10;17.40;99.90
7792;DHT22;3940;49.892;10.886;2022-10-03T15:44:00;17.40;99.90
7792;DHT22;3940;49.892;10.886;2022-10-03T15:46:51;17.60;99.90
7792;DHT22;3940;49.892;10.886;2022-10-03T15:49:48;17.50;99.90
7792;DHT22;3940;49.892;10.886;2022-10-03T15:52:43;17.30;99.90
7792;DHT22;3940;49.892;10.886;2022-10-03T15:55:36;17.10;99.90
7792;DHT22;3940;49.892;10.886;2022-10-03T15:58:30;16.90;99.90
7792;DHT22;3940;49.892;10.886;2022-10-03T16:01:22;16.70;99.90
7792;DHT22;3940;49.892;10.886;2022-10-03T16:04:22;16.40;99.90
7792;DHT22;3940;49.892;10.886;2022-10-03T16:10:20;16.00;99.90
7792;DHT22;3940;49.892;10.886;2022-10-03T16:13:20;15.80;99.90
7792;DHT22;3940;49.892;10.886;2022-10-03T16:16:12;15.70;99.90
7792;DHT22;3940;49.892;10.886;2022-10-03T16:22:30;15.50;99.90
7792;DHT22;3940;49.892;10.886;2022-10-03T16:25:28;15.40;99.90
7792;DHT22;3940;49.892;10.886;2022-10-03T16:28:19;15.30;99.90
7792;DHT22;3940;49.892;10.886;2022-10-03T16:31:11;15.20;99.90
7792;DHT22;3940;49.892;10.886;2022-10-03T16:34:02;15.20;99.90
7792;DHT22;3940;49.892;10.886;2022-10-03T16:36:50;15.10;99.90
7792;DHT22;3940;49.892;10.886;2022-10-03T16:39:36;15.10;99.90
7792;DHT22;3940;49.892;10.886;2022-10-03T16:42:35;15.00;99.90
7792;DHT22;3940;49.892;10.886;2022-10-03T16:45:37;14.90;99.90
7792;DHT22;3940;49.892;10.886;2022-10-03T16:48:27;14.90;99.90
7792;DHT22;3940;49.892;10.886;2022-10-03T16:51:39;14.90;99.90
7792;DHT22;3940;49.892;10.886;2022-10-03T16:54:26;14.80;99.90
7792;DHT22;3940;49.892;10.886;2022-10-03T16:57:14;14.80;99.90
7792;DHT22;3940;49.892;10.886;2022-10-03T17:00:04;14.70;99.90
7792;DHT22;3940;49.892;10.886;2022-10-03T17:02:53;14.70;99.90
7792;DHT22;3940;49.892;10.886;2022-10-03T17:05:44;14.70;99.90
7792;DHT22;3940;49.892;10.886;2022-10-03T17:08:35;14.60;99.90
7792;DHT22;3940;49.892;10.886;2022-10-03T17:11:25;14.60;99.90
7792;DHT22;3940;49.892;10.886;2022-10-03T17:14:16;14.60;99.90
7792;DHT22;3940;49.892;10.886;2022-10-03T17:17:28;14.60;99.90
7792;DHT22;3940;49.892;10.886;2022-10-03T17:20:18;14.60;99.90
7792;DHT22;3940;49.892;10.886;2022-10-03T17:23:27;14.60;99.90
7792;DHT22;3940;49.892;10.886;2022-10-03T17:26:23;14.50;99.90
7792;DHT22;3940;49.892;10.886;2022-10-03T17:29:25;14.50;99.90
7792;DHT22;3940;49.892;10.886;2022-10-03T17:32:32;14.50;99.90
7792;DHT22;3940;49.892;10.886;2022-10-03T17:35:24;14.40;99.90
7792;DHT22;3940;49.892;10.886;2022-10-03T17:41:21;14.30;99.90
7792;DHT22;3940;49.892;10.886;2022-10-03T17:44:37;14.30;99.90
7792;DHT22;3940;49.892;10.886;2022-10-03T17:51:02;14.00;99.90
7792;DHT22;3940;49.892;10.886;2022-10-03T17:53:57;13.90;99.90
7792;DHT22;3940;49.892;10.886;2022-10-03T17:56:50;13.90;99.90
7792;DHT22;3940;49.892;10.886;2022-10-03T17:59:43;13.90;99.90
7792;DHT22;3940;49.892;10.886;2022-10-03T18:05:49;14.10;99.90
7792;DHT22;3940;49.892;10.886;2022-10-03T18:08:37;14.10;99.90
7792;DHT22;3940;49.892;10.886;2022-10-03T18:11:25;14.00;99.90
7792;DHT22;3940;49.892;10.886;2022-10-03T18:17:39;13.70;99.90
7792;DHT22;3940;49.892;10.886;2022-10-03T18:21:12;13.30;99.90
7792;DHT22;3940;49.892;10.886;2022-10-03T18:24:00;12.90;99.90
7792;DHT22;3940;49.892;10.886;2022-10-03T18:27:08;12.70;99.90
7792;DHT22;3940;49.892;10.886;2022-10-03T18:30:03;12.50;99.90
7792;DHT22;3940;49.892;10.886;2022-10-03T18:32:49;12.40;99.90
7792;DHT22;3940;49.892;10.886;2022-10-03T18:35:36;12.40;99.90
7792;DHT22;3940;49.892;10.886;2022-10-03T18:38:23;12.40;99.90
7792;DHT22;3940;49.892;10.886;2022-10-03T18:41:13;12.30;99.90
7792;DHT22;3940;49.892;10.886;2022-10-03T18:43:59;12.50;99.90
7792;DHT22;3940;49.892;10.886;2022-10-03T18:46:44;12.50;99.90
7792;DHT22;3940;49.892;10.886;2022-10-03T18:49:37;12.50;99.90
7792;DHT22;3940;49.892;10.886;2022-10-03T18:52:32;12.50;99.90
7792;DHT22;3940;49.892;10.886;2022-10-03T18:55:27;12.60;99.90
7792;DHT22;3940;49.892;10.886;2022-10-03T18:58:20;12.50;99.90
7792;DHT22;3940;49.892;10.886;2022-10-03T19:01:24;12.50;99.90
7792;DHT22;3940;49.892;10.886;2022-10-03T19:04:16;12.50;99.90
7792;DHT22;3940;49.892;10.886;2022-10-03T19:07:24;12.50;99.90
7792;DHT22;3940;49.892;10.886;2022-10-03T19:10:52;12.40;99.90
7792;DHT22;3940;49.892;10.886;2022-10-03T19:17:20;12.30;99.90
7792;DHT22;3940;49.892;10.886;2022-10-03T19:20:25;12.30;99.90
7792;DHT22;3940;49.892;10.886;2022-10-03T19:23:14;12.20;99.90
7792;DHT22;3940;49.892;10.886;2022-10-03T19:26:23;12.20;99.90
7792;DHT22;3940;49.892;10.886;2022-10-03T19:29:14;12.10;99.90
7792;DHT22;3940;49.892;10.886;2022-10-03T19:32:04;12.00;99.90
7792;DHT22;3940;49.892;10.886;2022-10-03T19:35:02;11.90;99.90
7792;DHT22;3940;49.892;10.886;2022-10-03T19:37:51;11.70;99.90
7792;DHT22;3940;49.892;10.886;2022-10-03T19:40:59;11.60;99.90
7792;DHT22;3940;49.892;10.886;2022-10-03T19:43:47;11.60;99.90
7792;DHT22;3940;49.892;10.886;2022-10-03T19:46:57;11.50;99.90
7792;DHT22;3940;49.892;10.886;2022-10-03T19:49:49;11.50;99.90
7792;DHT22;3940;49.892;10.886;2022-10-03T19:52:37;11.50;99.90
7792;DHT22;3940;49.892;10.886;2022-10-03T19:55:33;11.50;99.90
7792;DHT22;3940;49.892;10.886;2022-10-03T19:58:21;11.50;99.90
7792;DHT22;3940;49.892;10.886;2022-10-03T20:01:07;11.50;99.90
7792;DHT22;3940;49.892;10.886;2022-10-03T20:03:54;11.30;99.90
7792;DHT22;3940;49.892;10.886;2022-10-03T20:06:45;11.30;99.90
7792;DHT22;3940;49.892;10.886;2022-10-03T20:09:32;11.30;99.90
7792;DHT22;3940;49.892;10.886;2022-10-03T20:12:17;11.20;99.90
7792;DHT22;3940;49.892;10.886;2022-10-03T20:15:14;11.20;99.90
7792;DHT22;3940;49.892;10.886;2022-10-03T20:18:01;11.20;99.90
7792;DHT22;3940;49.892;10.886;2022-10-03T20:20:48;11.20;99.90
7792;DHT22;3940;49.892;10.886;2022-10-03T20:23:33;11.20;99.90
7792;DHT22;3940;49.892;10.886;2022-10-03T20:26:32;11.10;99.90
7792;DHT22;3940;49.892;10.886;2022-10-03T20:29:23;11.10;99.90
7792;DHT22;3940;49.892;10.886;2022-10-03T20:32:13;11.10;99.90
7792;DHT22;3940;49.892;10.886;2022-10-03T20:34:59;11.10;99.90
7792;DHT22;3940;49.892;10.886;2022-10-03T20:38:03;11.10;99.90
7792;DHT22;3940;49.892;10.886;2022-10-03T20:40:56;11.00;99.90
7792;DHT22;3940;49.892;10.886;2022-10-03T20:43:54;10.80;99.90
7792;DHT22;3940;49.892;10.886;2022-10-03T20:46:46;10.80;99.90
7792;DHT22;3940;49.892;10.886;2022-10-03T20:49:36;10.70;99.90
7792;DHT22;3940;49.892;10.886;2022-10-03T20:52:23;10.60;99.90
7792;DHT22;3940;49.892;10.886;2022-10-03T20:55:18;10.70;99.90
7792;DHT22;3940;49.892;10.886;2022-10-03T20:58:14;10.30;99.90
7792;DHT22;3940;49.892;10.886;2022-10-03T21:01:08;10.20;99.90
7792;DHT22;3940;49.892;10.886;2022-10-03T21:04:10;10.20;99.90
7792;DHT22;3940;49.892;10.886;2022-10-03T21:07:20;10.10;99.90
7792;DHT22;3940;49.892;10.886;2022-10-03T21:10:19;10.10;99.90
7792;DHT22;3940;49.892;10.886;2022-10-03T21:16:21;9.90;99.90
7792;DHT22;3940;49.892;10.886;2022-10-03T21:19:41;10.10;99.90
7792;DHT22;3940;49.892;10.886;2022-10-03T21:22:28;10.30;99.90
7792;DHT22;3940;49.892;10.886;2022-10-03T21:25:21;10.40;99.90
7792;DHT22;3940;49.892;10.886;2022-10-03T21:28:28;10.40;99.90
7792;DHT22;3940;49.892;10.886;2022-10-03T21:34:26;10.20;99.90
7792;DHT22;3940;49.892;10.886;2022-10-03T21:37:25;10.20;99.90
7792;DHT22;3940;49.892;10.886;2022-10-03T21:40:22;10.20;99.90
7792;DHT22;3940;49.892;10.886;2022-10-03T21:46:44;10.00;99.90
7792;DHT22;3940;49.892;10.886;2022-10-03T21:49:50;9.90;99.90
7792;DHT22;3940;49.892;10.886;2022-10-03T21:52:56;9.90;99.90
7792;DHT22;3940;49.892;10.886;2022-10-03T21:55:56;9.90;99.90
7792;DHT22;3940;49.892;10.886;2022-10-03T22:01:57;9.90;99.90
7792;DHT22;3940;49.892;10.886;2022-10-03T22:04:51;10.00;99.90
7792;DHT22;3940;49.892;10.886;2022-10-03T22:07:40;10.00;99.90
7792;DHT22;3940;49.892;10.886;2022-10-03T22:10:28;10.20;99.90
7792;DHT22;3940;49.892;10.886;2022-10-03T22:13:15;10.20;99.90
7792;DHT22;3940;49.892;10.886;2022-10-03T22:16:13;10.10;99.90
7792;DHT22;3940;49.892;10.886;2022-10-03T22:19:19;10.00;99.90
7792;DHT22;3940;49.892;10.886;2022-10-03T22:25:30;9.70;99.90
7792;DHT22;3940;49.892;10.886;2022-10-03T22:28:25;9.40;99.90
7792;DHT22;3940;49.892;10.886;2022-10-03T22:34:43;9.10;99.90
7792;DHT22;3940;49.892;10.886;2022-10-03T22:37:32;8.90;99.90
7792;DHT22;3940;49.892;10.886;2022-10-03T22:40:17;8.90;99.90
7792;DHT22;3940;49.892;10.886;2022-10-03T22:43:03;8.80;99.90
7792;DHT22;3940;49.892;10.886;2022-10-03T22:45:51;8.80;99.90
7792;DHT22;3940;49.892;10.886;2022-10-03T22:48:43;8.70;99.90
7792;DHT22;3940;49.892;10.886;2022-10-03T22:51:30;8.80;99.90
7792;DHT22;3940;49.892;10.886;2022-10-03T22:54:17;9.00;99.90
7792;DHT22;3940;49.892;10.886;2022-10-03T22:57:10;9.00;99.90
7792;DHT22;3940;49.892;10.886;2022-10-03T23:00:03;9.00;99.90
7792;DHT22;3940;49.892;10.886;2022-10-03T23:02:57;9.00;99.90
7792;DHT22;3940;49.892;10.886;2022-10-03T23:12:03;9.00;99.90
7792;DHT22;3940;49.892;10.886;2022-10-03T23:14:49;9.00;99.90
7792;DHT22;3940;49.892;10.886;2022-10-03T23:18:03;8.90;99.90
7792;DHT22;3940;49.892;10.886;2022-10-03T23:21:02;8.80;99.90
7792;DHT22;3940;49.892;10.886;2022-10-03T23:24:05;8.80;99.90
7792;DHT22;3940;49.892;10.886;2022-10-03T23:27:07;8.90;99.90
7792;DHT22;3940;49.892;10.886;2022-10-03T23:33:48;9.00;99.90
7792;DHT22;3940;49.892;10.886;2022-10-03T23:36:33;8.90;99.90
7792;DHT22;3940;49.892;10.886;2022-10-03T23:39:31;8.70;99.90
7792;DHT22;3940;49.892;10.886;2022-10-03T23:42:19;8.50;99.90
7792;DHT22;3940;49.892;10.886;2022-10-03T23:45:13;8.50;99.90
7792;DHT22;3940;49.892;10.886;2022-10-03T23:48:06;8.50;99.90
7792;DHT22;3940;49.892;10.886;2022-10-03T23:50:55;8.40;99.90
7792;DHT22;3940;49.892;10.886;2022-10-03T23:53:46;8.40;99.90
7792;DHT22;3940;49.892;10.886;2022-10-03T23:56:38;8.30;99.90
7792;DHT22;3940;49.892;10.886;2022-10-03T23:59:24;8.20;99.90
